Time;durP1;ratioP1;P1;durP2;ratioP2;P2;SDS_P1;SDS_P2;PMS_P1;PMS_P2;Temp;Humidity;BMP_temperature;BMP_pressure;BME280_temperature;BME280_humidity;BME280_pressure;Samples;Min_cycle;Max_cycle;Signal;HPM_P1;HPM_P2
2022/07/09 00:00:09;;;;;;;3.33;1.90;;;;;;;;;;4996229;28;20201;-32
2022/07/09 00:02:36;;;;;;;2.30;1.70;;;;;;;;;;4984406;28;20210;-32
2022/07/09 00:05:05;;;;;;;1.63;1.53;;;;;;;;;;4991433;28;20204;-32
2022/07/09 00:07:32;;;;;;;2.10;1.60;;;;;;;;;;4995467;28;20231;-32
2022/07/09 00:09:59;;;;;;;2.87;1.60;;;;;;;;;;4995499;28;20218;-33
2022/07/09 00:12:26;;;;;;;3.50;1.60;;;;;;;;;;4992788;28;20207;-35
2022/07/09 00:14:54;;;;;;;2.57;1.90;;;;;;;;;;4994192;28;20235;-33
2022/07/09 00:17:21;;;;;;;3.67;1.80;;;;;;;;;;4993067;28;20234;-30
2022/07/09 00:19:48;;;;;;;2.03;1.63;;;;;;;;;;4991283;28;20214;-35
2022/07/09 00:22:16;;;;;;;3.47;1.70;;;;;;;;;;4992786;28;20204;-32
2022/07/09 00:24:44;;;;;;;1.73;1.57;;;;;;;;;;4987032;28;20208;-38
2022/07/09 00:27:11;;;;;;;2.67;1.60;;;;;;;;;;4976421;28;20232;-30
2022/07/09 00:29:38;;;;;;;1.73;1.60;;;;;;;;;;4994758;28;20214;-32
2022/07/09 00:32:05;;;;;;;1.90;1.63;;;;;;;;;;4994715;28;20209;-32
2022/07/09 00:34:33;;;;;;;2.03;1.70;;;;;;;;;;4992859;28;20227;-33
2022/07/09 00:37:01;;;;;;;3.47;1.90;;;;;;;;;;4990762;28;20286;-32
2022/07/09 00:39:30;;;;;;;3.17;1.73;;;;;;;;;;4993471;28;20219;-35
2022/07/09 00:42:03;;;;;;;3.30;1.80;;;;;;;;;;4992188;28;20213;-33
2022/07/09 00:44:30;;;;;;;2.60;1.77;;;;;;;;;;4992375;28;20737;-32
2022/07/09 00:46:57;;;;;;;1.97;1.80;;;;;;;;;;4993490;28;20228;-33
2022/07/09 00:49:24;;;;;;;2.47;1.93;;;;;;;;;;4988051;28;20213;-35
2022/07/09 00:51:52;;;;;;;2.73;1.80;;;;;;;;;;4994304;28;20207;-37
2022/07/09 00:54:19;;;;;;;3.97;1.53;;;;;;;;;;4994929;28;20785;-29
2022/07/09 00:56:48;;;;;;;2.77;1.93;;;;;;;;;;4993468;28;20243;-30
2022/07/09 00:59:15;;;;;;;3.10;1.93;;;;;;;;;;4994265;28;20207;-30
2022/07/09 01:01:43;;;;;;;2.17;2.03;;;;;;;;;;4987417;28;20212;-33
2022/07/09 01:04:10;;;;;;;1.70;1.60;;;;;;;;;;4983804;28;20208;-31
2022/07/09 01:06:37;;;;;;;2.20;1.70;;;;;;;;;;4989510;28;20221;-35
2022/07/09 01:09:05;;;;;;;1.60;1.47;;;;;;;;;;4995360;28;20612;-33
2022/07/09 01:11:32;;;;;;;2.93;1.50;;;;;;;;;;4995768;28;20213;-32
2022/07/09 01:14:01;;;;;;;2.43;1.80;;;;;;;;;;4993835;28;20713;-31
2022/07/09 01:16:32;;;;;;;2.30;1.70;;;;;;;;;;4993523;28;20240;-27
2022/07/09 01:18:59;;;;;;;3.53;1.70;;;;;;;;;;4989776;28;20219;-34
2022/07/09 01:21:27;;;;;;;4.40;1.90;;;;;;;;;;5002798;28;20208;-32
2022/07/09 01:23:54;;;;;;;2.97;1.80;;;;;;;;;;4993556;28;20680;-35
2022/07/09 01:26:22;;;;;;;2.07;1.83;;;;;;;;;;4994054;28;20220;-29
2022/07/09 01:28:49;;;;;;;2.10;1.53;;;;;;;;;;4988849;28;20205;-36
2022/07/09 01:31:16;;;;;;;1.83;1.63;;;;;;;;;;4997389;28;20204;-30
2022/07/09 01:33:44;;;;;;;2.63;1.47;;;;;;;;;;4990207;28;20642;-33
2022/07/09 01:36:11;;;;;;;2.90;2.07;;;;;;;;;;4991093;28;20232;-31
2022/07/09 01:38:40;;;;;;;2.47;1.70;;;;;;;;;;4994082;28;20196;-33
2022/07/09 01:41:07;;;;;;;4.77;1.70;;;;;;;;;;4994167;28;20216;-30
2022/07/09 01:43:34;;;;;;;3.27;1.67;;;;;;;;;;4988397;28;20223;-34
2022/07/09 01:46:01;;;;;;;1.67;1.53;;;;;;;;;;4990872;28;20231;-32
2022/07/09 01:48:29;;;;;;;4.53;1.80;;;;;;;;;;4984905;28;20569;-32
2022/07/09 01:50:58;;;;;;;3.00;1.70;;;;;;;;;;4996229;28;20676;-33
2022/07/09 01:53:25;;;;;;;1.80;1.70;;;;;;;;;;4993555;28;20208;-30
2022/07/09 01:55:53;;;;;;;1.83;1.50;;;;;;;;;;4993694;28;20595;-32
2022/07/09 01:58:21;;;;;;;1.80;1.70;;;;;;;;;;4990367;28;20207;-33
2022/07/09 02:00:48;;;;;;;1.70;1.60;;;;;;;;;;4993575;28;20204;-33
2022/07/09 02:03:15;;;;;;;1.90;1.70;;;;;;;;;;4990658;28;20620;-32
2022/07/09 02:05:43;;;;;;;1.93;1.60;;;;;;;;;;4991852;28;20210;-33
2022/07/09 02:08:10;;;;;;;2.50;1.70;;;;;;;;;;4993757;28;20226;-29
2022/07/09 02:10:37;;;;;;;1.77;1.60;;;;;;;;;;4993181;28;20215;-28
2022/07/09 02:13:05;;;;;;;2.03;1.70;;;;;;;;;;4991089;28;20204;-31
2022/07/09 02:15:32;;;;;;;3.67;1.90;;;;;;;;;;4993052;28;20232;-33
2022/07/09 02:18:00;;;;;;;3.50;1.80;;;;;;;;;;4993014;28;20780;-32
2022/07/09 02:20:27;;;;;;;5.97;1.93;;;;;;;;;;4990376;28;20219;-35
2022/07/09 02:22:54;;;;;;;1.90;1.80;;;;;;;;;;4994923;28;20208;-33
2022/07/09 02:25:21;;;;;;;1.83;1.73;;;;;;;;;;4992110;28;20278;-33
2022/07/09 02:27:48;;;;;;;1.90;1.50;;;;;;;;;;4991100;28;20220;-36
2022/07/09 02:30:16;;;;;;;2.67;1.80;;;;;;;;;;4992541;28;20211;-31
2022/07/09 02:32:44;;;;;;;5.23;1.90;;;;;;;;;;4991887;28;20218;-31
2022/07/09 02:35:11;;;;;;;1.90;1.80;;;;;;;;;;4986603;28;20232;-32
2022/07/09 02:37:39;;;;;;;2.33;1.90;;;;;;;;;;4992976;28;20235;-36
2022/07/09 02:40:07;;;;;;;1.60;1.50;;;;;;;;;;4992928;28;20210;-33
2022/07/09 02:42:36;;;;;;;4.43;2.00;;;;;;;;;;4990376;28;20220;-31
2022/07/09 02:45:03;;;;;;;1.80;1.70;;;;;;;;;;4990531;28;20204;-33
2022/07/09 02:47:32;;;;;;;1.60;1.50;;;;;;;;;;4991960;28;20731;-31
2022/07/09 02:49:59;;;;;;;4.20;1.97;;;;;;;;;;4983767;28;20204;-31
2022/07/09 02:52:26;;;;;;;2.43;2.10;;;;;;;;;;4992664;28;20207;-31
2022/07/09 02:54:53;;;;;;;2.43;1.97;;;;;;;;;;4993247;28;20204;-32
2022/07/09 02:57:20;;;;;;;2.10;1.80;;;;;;;;;;4992776;28;20662;-34
2022/07/09 02:59:47;;;;;;;2.47;1.77;;;;;;;;;;4990509;28;20211;-30
2022/07/09 03:02:14;;;;;;;2.43;1.90;;;;;;;;;;4991294;28;20208;-34
2022/07/09 03:04:43;;;;;;;1.80;1.70;;;;;;;;;;4985800;28;20204;-30
2022/07/09 03:07:10;;;;;;;2.60;1.70;;;;;;;;;;4989633;28;20255;-36
2022/07/09 03:09:37;;;;;;;3.07;2.47;;;;;;;;;;4992930;28;20262;-32
2022/07/09 03:12:05;;;;;;;1.53;1.43;;;;;;;;;;4992257;28;20517;-30
2022/07/09 03:14:32;;;;;;;1.93;1.80;;;;;;;;;;4988811;28;20295;-36
2022/07/09 03:16:59;;;;;;;1.90;1.80;;;;;;;;;;4993850;28;20224;-34
2022/07/09 03:19:26;;;;;;;3.83;1.97;;;;;;;;;;4992247;28;20219;-35
2022/07/09 03:21:55;;;;;;;2.37;1.87;;;;;;;;;;4993747;28;20218;-35
2022/07/09 03:24:22;;;;;;;2.70;1.80;;;;;;;;;;4993820;28;20204;-34
2022/07/09 03:26:49;;;;;;;2.57;1.70;;;;;;;;;;4993844;28;20634;-34
2022/07/09 03:29:16;;;;;;;3.67;1.80;;;;;;;;;;4992966;28;20204;-33
2022/07/09 03:31:44;;;;;;;2.03;1.80;;;;;;;;;;4992493;28;20700;-34
2022/07/09 03:34:11;;;;;;;3.03;1.97;;;;;;;;;;4981309;28;20215;-31
2022/07/09 03:36:38;;;;;;;2.00;1.90;;;;;;;;;;5000974;28;20228;-33
2022/07/09 03:39:06;;;;;;;1.67;1.57;;;;;;;;;;4996009;28;20215;-31
2022/07/09 03:41:34;;;;;;;2.30;2.00;;;;;;;;;;4996239;28;20208;-33
2022/07/09 03:46:29;;;;;;;3.17;1.90;;;;;;;;;;5037969;28;20285;-39
2022/07/09 03:48:56;;;;;;;2.17;1.90;;;;;;;;;;5026478;28;20199;-32
2022/07/09 03:51:24;;;;;;;2.80;2.10;;;;;;;;;;5030638;28;20367;-33
2022/07/09 03:53:51;;;;;;;2.20;2.00;;;;;;;;;;5035597;28;20458;-39
2022/07/09 03:56:20;;;;;;;3.50;2.03;;;;;;;;;;5029420;28;20234;-35
2022/07/09 03:58:48;;;;;;;2.10;2.00;;;;;;;;;;5024443;28;20207;-39
2022/07/09 04:01:15;;;;;;;2.87;2.10;;;;;;;;;;5023256;28;20196;-40
2022/07/09 04:03:42;;;;;;;2.57;2.37;;;;;;;;;;5018833;28;20205;-38
2022/07/09 04:06:09;;;;;;;2.53;1.83;;;;;;;;;;5026244;28;20230;-39
2022/07/09 04:08:36;;;;;;;2.50;1.90;;;;;;;;;;5026692;28;20210;-39
2022/07/09 04:11:03;;;;;;;2.07;1.80;;;;;;;;;;5035522;28;20213;-41
2022/07/09 04:13:32;;;;;;;3.77;2.00;;;;;;;;;;5024303;28;20206;-36
2022/07/09 04:15:59;;;;;;;1.90;1.80;;;;;;;;;;5022639;28;20230;-34
2022/07/09 04:18:26;;;;;;;2.00;1.90;;;;;;;;;;5023676;28;20210;-33
2022/07/09 04:20:54;;;;;;;3.03;1.90;;;;;;;;;;5038472;28;20226;-35
2022/07/09 04:23:21;;;;;;;2.00;1.83;;;;;;;;;;5030559;28;20199;-34
2022/07/09 04:25:50;;;;;;;2.70;2.20;;;;;;;;;;5016295;28;20329;-36
2022/07/09 04:28:18;;;;;;;1.97;1.80;;;;;;;;;;5018091;28;20217;-37
2022/07/09 04:30:46;;;;;;;2.27;1.77;;;;;;;;;;5032535;28;20207;-37
2022/07/09 04:33:13;;;;;;;2.73;1.93;;;;;;;;;;5033799;28;20211;-36
2022/07/09 04:35:40;;;;;;;2.50;2.20;;;;;;;;;;5032269;28;20233;-35
2022/07/09 04:38:08;;;;;;;3.13;1.80;;;;;;;;;;5032352;28;20226;-36
2022/07/09 04:40:35;;;;;;;1.93;1.80;;;;;;;;;;5015348;28;20221;-37
2022/07/09 04:43:02;;;;;;;3.13;2.00;;;;;;;;;;5038712;28;20209;-39
2022/07/09 04:45:29;;;;;;;2.97;1.90;;;;;;;;;;5014598;28;20218;-36
2022/07/09 04:47:59;;;;;;;2.07;1.87;;;;;;;;;;5012931;28;20244;-38
2022/07/09 04:50:26;;;;;;;2.70;2.23;;;;;;;;;;5024375;28;20214;-37
2022/07/09 04:52:53;;;;;;;4.60;1.97;;;;;;;;;;5023032;28;20204;-34
2022/07/09 04:55:21;;;;;;;1.97;1.87;;;;;;;;;;5020626;28;20206;-43
2022/07/09 04:57:48;;;;;;;2.10;2.00;;;;;;;;;;5029147;28;20231;-37
2022/07/09 05:00:16;;;;;;;3.07;1.80;;;;;;;;;;5033549;28;20214;-35
2022/07/09 05:02:43;;;;;;;2.77;1.70;;;;;;;;;;5033660;28;20290;-34
2022/07/09 05:05:13;;;;;;;2.57;1.77;;;;;;;;;;5025220;28;20203;-40
2022/07/09 05:07:40;;;;;;;2.03;1.80;;;;;;;;;;5033341;28;20226;-39
2022/07/09 05:10:08;;;;;;;2.83;2.20;;;;;;;;;;5018119;28;20205;-38
2022/07/09 05:12:35;;;;;;;2.10;1.90;;;;;;;;;;5026886;28;20243;-39
2022/07/09 05:15:02;;;;;;;2.60;2.17;;;;;;;;;;5030996;28;20213;-39
2022/07/09 05:17:29;;;;;;;5.63;2.37;;;;;;;;;;5025944;28;20242;-36
2022/07/09 05:19:56;;;;;;;2.20;2.10;;;;;;;;;;5036582;28;20210;-39
2022/07/09 05:22:25;;;;;;;3.00;1.83;;;;;;;;;;5018021;28;20207;-38
2022/07/09 05:24:52;;;;;;;3.03;2.30;;;;;;;;;;5024636;28;20206;-42
2022/07/09 05:27:19;;;;;;;2.50;1.97;;;;;;;;;;5032196;28;20254;-37
2022/07/09 05:29:46;;;;;;;4.27;2.33;;;;;;;;;;5023902;28;20200;-32
2022/07/09 05:32:14;;;;;;;2.00;1.90;;;;;;;;;;5022112;28;20213;-36
2022/07/09 05:34:41;;;;;;;2.90;2.07;;;;;;;;;;5027400;28;20308;-35
2022/07/09 05:37:08;;;;;;;2.43;2.23;;;;;;;;;;5029177;28;20238;-36
2022/07/09 05:39:37;;;;;;;2.30;1.80;;;;;;;;;;5029585;28;20305;-35
2022/07/09 05:42:05;;;;;;;3.00;2.10;;;;;;;;;;5021621;28;20235;-39
2022/07/09 05:44:32;;;;;;;4.17;2.00;;;;;;;;;;5026347;28;20247;-39
2022/07/09 05:47:01;;;;;;;3.43;2.00;;;;;;;;;;5033065;28;20227;-37
2022/07/09 05:49:28;;;;;;;3.57;2.10;;;;;;;;;;5033230;28;20263;-42
2022/07/09 05:51:56;;;;;;;2.40;2.10;;;;;;;;;;5022422;28;20263;-38
2022/07/09 05:54:24;;;;;;;2.40;2.00;;;;;;;;;;5034479;28;20213;-39
2022/07/09 05:56:52;;;;;;;3.13;2.60;;;;;;;;;;5020178;28;20737;-39
2022/07/09 05:59:19;;;;;;;3.47;2.20;;;;;;;;;;5012154;28;20209;-37
2022/07/09 06:01:46;;;;;;;3.20;2.00;;;;;;;;;;5025601;28;20216;-37
2022/07/09 06:04:13;;;;;;;2.23;2.00;;;;;;;;;;5032251;28;20209;-36
2022/07/09 06:06:40;;;;;;;4.27;2.00;;;;;;;;;;5035078;28;20233;-38
2022/07/09 06:09:08;;;;;;;3.03;2.10;;;;;;;;;;5032327;28;20205;-39
2022/07/09 06:11:35;;;;;;;2.30;2.10;;;;;;;;;;5025243;28;20201;-37
2022/07/09 06:14:04;;;;;;;2.10;1.87;;;;;;;;;;5021645;28;20207;-40
2022/07/09 06:16:31;;;;;;;2.90;1.90;;;;;;;;;;5021661;28;20215;-35
2022/07/09 06:18:58;;;;;;;2.00;1.80;;;;;;;;;;5019680;28;20213;-36
2022/07/09 06:21:26;;;;;;;3.35;2.35;;;;;;;;;;5018435;28;20241;-38
2022/07/09 06:23:53;;;;;;;2.60;2.20;;;;;;;;;;5024385;28;20213;-34
2022/07/09 06:26:20;;;;;;;4.20;2.20;;;;;;;;;;5017827;28;20223;-38
2022/07/09 06:28:48;;;;;;;3.42;2.10;;;;;;;;;;5013442;28;20199;-36
2022/07/09 06:31:16;;;;;;;2.88;2.17;;;;;;;;;;5015240;28;20234;-35
2022/07/09 06:33:43;;;;;;;2.72;2.50;;;;;;;;;;5020431;28;20496;-35
2022/07/09 06:36:11;;;;;;;3.97;2.25;;;;;;;;;;5019157;28;20225;-40
2022/07/09 06:39:44;;;;;;;3.90;1.90;;;;;;;;;;5019900;28;20242;-36
2022/07/09 06:41:25;;;;;;;2.38;2.00;;;;;;;;;;5021974;28;20195;-40
2022/07/09 06:43:52;;;;;;;3.42;2.08;;;;;;;;;;5011189;28;20198;-38
2022/07/09 06:46:21;;;;;;;4.22;2.75;;;;;;;;;;5024194;28;20234;-32
2022/07/09 06:48:48;;;;;;;4.18;2.15;;;;;;;;;;5022106;28;20238;-35
2022/07/09 06:51:17;;;;;;;4.15;2.08;;;;;;;;;;5021125;28;20209;-40
2022/07/09 06:53:44;;;;;;;3.15;2.10;;;;;;;;;;5035682;28;20202;-35
2022/07/09 06:56:11;;;;;;;4.65;2.38;;;;;;;;;;5013231;28;20219;-36
2022/07/09 06:58:38;;;;;;;3.17;2.00;;;;;;;;;;5037333;28;20198;-37
2022/07/09 07:01:06;;;;;;;2.63;2.17;;;;;;;;;;5018736;28;20197;-37
2022/07/09 07:03:34;;;;;;;2.42;2.10;;;;;;;;;;5011007;28;20210;-36
2022/07/09 07:06:01;;;;;;;2.58;1.80;;;;;;;;;;5019907;28;20209;-34
2022/07/09 07:08:28;;;;;;;2.95;2.13;;;;;;;;;;5015466;28;20209;-36
2022/07/09 07:10:55;;;;;;;2.20;1.90;;;;;;;;;;5032178;28;20279;-40
2022/07/09 07:13:22;;;;;;;4.40;2.20;;;;;;;;;;5027908;28;20234;-34
2022/07/09 07:15:50;;;;;;;4.22;2.25;;;;;;;;;;5023423;28;20212;-39
2022/07/09 07:18:17;;;;;;;4.43;1.80;;;;;;;;;;5014977;28;20218;-41
2022/07/09 07:20:46;;;;;;;2.25;1.52;;;;;;;;;;5029715;28;20211;-33
2022/07/09 07:23:16;;;;;;;4.70;2.00;;;;;;;;;;5031449;28;20227;-38
2022/07/09 07:25:43;;;;;;;3.97;2.00;;;;;;;;;;5025830;28;20205;-37
2022/07/09 07:28:11;;;;;;;4.57;1.95;;;;;;;;;;5012177;28;20220;-35
2022/07/09 07:30:40;;;;;;;3.22;2.53;;;;;;;;;;5027065;28;20206;-37
2022/07/09 07:33:08;;;;;;;2.72;1.70;;;;;;;;;;5013289;28;20200;-37
2022/07/09 07:35:35;;;;;;;2.80;1.50;;;;;;;;;;5029205;28;20276;-39
2022/07/09 07:38:03;;;;;;;2.78;1.70;;;;;;;;;;5015035;28;20262;-34
2022/07/09 07:40:30;;;;;;;1.67;1.55;;;;;;;;;;5030555;28;20231;-37
2022/07/09 07:42:57;;;;;;;3.55;1.90;;;;;;;;;;5029107;28;20528;-42
2022/07/09 07:45:25;;;;;;;2.83;1.30;;;;;;;;;;5026258;28;20213;-38
2022/07/09 07:47:54;;;;;;;4.60;1.60;;;;;;;;;;5023898;28;20220;-38
2022/07/09 07:50:21;;;;;;;2.80;1.50;;;;;;;;;;5026085;28;20208;-39
2022/07/09 07:52:48;;;;;;;4.90;1.80;;;;;;;;;;5016606;28;20209;-35
2022/07/09 07:55:17;;;;;;;2.97;1.63;;;;;;;;;;5018516;28;20208;-37
2022/07/09 07:57:44;;;;;;;5.28;1.80;;;;;;;;;;5022246;28;20260;-38
2022/07/09 08:00:12;;;;;;;11.38;2.45;;;;;;;;;;5014062;28;20209;-34
2022/07/09 08:02:39;;;;;;;6.57;1.90;;;;;;;;;;5017006;28;20191;-36
2022/07/09 08:05:07;;;;;;;4.45;1.65;;;;;;;;;;5028896;28;20277;-38
2022/07/09 08:07:34;;;;;;;2.38;1.75;;;;;;;;;;5025000;28;20255;-38
2022/07/09 08:10:01;;;;;;;3.20;1.83;;;;;;;;;;5011182;28;20232;-33
2022/07/09 08:12:30;;;;;;;2.60;1.67;;;;;;;;;;5023763;28;20207;-38
2022/07/09 08:14:57;;;;;;;2.22;1.80;;;;;;;;;;5015074;28;20226;-36
2022/07/09 08:17:25;;;;;;;2.97;1.75;;;;;;;;;;5019191;28;20231;-38
2022/07/09 08:19:52;;;;;;;3.35;1.90;;;;;;;;;;5030642;28;20255;-39
2022/07/09 08:22:19;;;;;;;3.15;1.80;;;;;;;;;;5026126;28;20245;-37
2022/07/09 08:24:46;;;;;;;2.72;2.00;;;;;;;;;;5026061;28;20207;-39
2022/07/09 08:27:13;;;;;;;3.42;1.35;;;;;;;;;;5028237;28;20214;-35
2022/07/09 08:29:42;;;;;;;5.38;1.60;;;;;;;;;;5048069;28;20248;-37
2022/07/09 08:32:10;;;;;;;2.50;1.30;;;;;;;;;;5021216;28;20229;-40
2022/07/09 08:34:37;;;;;;;2.70;1.80;;;;;;;;;;5030149;28;20581;-41
2022/07/09 08:37:04;;;;;;;4.50;1.85;;;;;;;;;;5020730;28;20238;-39
2022/07/09 08:39:37;;;;;;;2.33;1.60;;;;;;;;;;5029879;28;20206;-41
2022/07/09 08:42:09;;;;;;;1.73;1.52;;;;;;;;;;5029777;28;20208;-38
2022/07/09 08:44:39;;;;;;;3.88;1.45;;;;;;;;;;5031334;28;20273;-36
2022/07/09 08:47:07;;;;;;;5.85;1.63;;;;;;;;;;5015636;28;20231;-39
2022/07/09 08:49:35;;;;;;;4.55;1.80;;;;;;;;;;5023900;28;20213;-32
2022/07/09 08:52:03;;;;;;;1.65;1.40;;;;;;;;;;5025135;28;20207;-37
2022/07/09 08:54:32;;;;;;;1.33;1.05;;;;;;;;;;5033825;28;20207;-32
2022/07/09 08:56:59;;;;;;;3.83;1.40;;;;;;;;;;5032252;28;20237;-37
2022/07/09 08:59:26;;;;;;;3.88;1.85;;;;;;;;;;5031750;28;20221;-35
2022/07/09 09:01:56;;;;;;;3.00;1.50;;;;;;;;;;5035701;28;20210;-38
2022/07/09 09:04:25;;;;;;;3.05;1.38;;;;;;;;;;5032835;28;20217;-36
2022/07/09 09:06:53;;;;;;;2.97;1.45;;;;;;;;;;5037969;28;20227;-40
2022/07/09 09:09:21;;;;;;;4.53;1.60;;;;;;;;;;5033761;28;20295;-42
2022/07/09 09:11:50;;;;;;;1.83;1.10;;;;;;;;;;5036369;28;20210;-38
2022/07/09 09:14:21;;;;;;;3.50;1.20;;;;;;;;;;5034190;28;20204;-37
2022/07/09 09:16:48;;;;;;;1.02;0.77;;;;;;;;;;5018973;28;20227;-41
2022/07/09 09:19:15;;;;;;;2.20;0.90;;;;;;;;;;5032136;28;20231;-39
2022/07/09 09:21:44;;;;;;;1.05;0.80;;;;;;;;;;5037702;28;20208;-40
2022/07/09 09:24:11;;;;;;;5.20;1.05;;;;;;;;;;5033157;28;20214;-37
2022/07/09 09:26:39;;;;;;;1.40;0.70;;;;;;;;;;5032002;28;20234;-39
2022/07/09 09:29:07;;;;;;;0.98;0.98;;;;;;;;;;5021533;28;20205;-34
2022/07/09 09:31:35;;;;;;;1.55;0.80;;;;;;;;;;5024066;28;20207;-38
2022/07/09 09:34:13;;;;;;;2.38;1.08;;;;;;;;;;5024054;28;20203;-42
2022/07/09 09:36:40;;;;;;;1.85;1.05;;;;;;;;;;5029669;28;20227;-35
2022/07/09 09:39:14;;;;;;;1.65;0.80;;;;;;;;;;5032380;28;20234;-42
2022/07/09 09:41:41;;;;;;;4.10;0.90;;;;;;;;;;5033465;28;20216;-38
2022/07/09 09:46:37;;;;;;;0.65;0.65;;;;;;;;;;5009967;28;20297;-42
2022/07/09 09:49:07;;;;;;;1.17;0.70;;;;;;;;;;5027202;28;20203;-41
2022/07/09 09:51:35;;;;;;;0.70;0.70;;;;;;;;;;5027173;28;20213;-41
2022/07/09 09:54:03;;;;;;;1.23;0.77;;;;;;;;;;5032045;28;20264;-41
2022/07/09 09:56:32;;;;;;;1.25;1.00;;;;;;;;;;5030506;28;20277;-40
2022/07/09 09:59:00;;;;;;;1.17;0.63;;;;;;;;;;5029530;28;20254;-42
2022/07/09 10:01:27;;;;;;;0.80;0.70;;;;;;;;;;5032631;28;20199;-38
2022/07/09 10:03:55;;;;;;;1.50;0.90;;;;;;;;;;5025404;28;20210;-39
2022/07/09 10:06:22;;;;;;;6.35;1.92;;;;;;;;;;5022045;28;20234;-38
2022/07/09 10:08:49;;;;;;;4.22;1.27;;;;;;;;;;5024936;28;20230;-40
2022/07/09 10:11:16;;;;;;;2.67;0.73;;;;;;;;;;5020179;28;20210;-42
2022/07/09 10:13:52;;;;;;;1.13;0.80;;;;;;;;;;5024879;28;20207;-44
2022/07/09 10:16:19;;;;;;;0.70;0.70;;;;;;;;;;5026908;28;20244;-43
2022/07/09 10:18:53;;;;;;;1.20;0.95;;;;;;;;;;5013026;28;20222;-42
2022/07/09 10:21:32;;;;;;;2.90;1.00;;;;;;;;;;5028179;28;20284;-41
2022/07/09 10:23:59;;;;;;;1.58;0.90;;;;;;;;;;5031632;28;20222;-44
2022/07/09 10:26:37;;;;;;;1.98;0.90;;;;;;;;;;5032347;28;20230;-37
2022/07/09 10:29:18;;;;;;;2.85;0.82;;;;;;;;;;5028951;28;20535;-43
2022/07/09 10:31:45;;;;;;;2.05;0.90;;;;;;;;;;5015889;28;20285;-43
2022/07/09 10:34:17;;;;;;;0.75;0.70;;;;;;;;;;5024944;28;20222;-41
2022/07/09 10:36:57;;;;;;;2.47;1.47;;;;;;;;;;5022666;28;20223;-43
2022/07/09 10:39:24;;;;;;;0.57;0.57;;;;;;;;;;5021846;28;20221;-38
2022/07/09 10:41:59;;;;;;;1.85;0.88;;;;;;;;;;5020898;28;20237;-41
2022/07/09 10:44:35;;;;;;;2.47;0.80;;;;;;;;;;5019286;28;20202;-42
2022/07/09 10:47:02;;;;;;;7.40;1.10;;;;;;;;;;5027360;28;20232;-44
2022/07/09 10:49:29;;;;;;;0.40;0.40;;;;;;;;;;5026981;28;20202;-43
2022/07/09 10:51:58;;;;;;;1.60;0.82;;;;;;;;;;5034769;28;20206;-41
2022/07/09 10:54:25;;;;;;;3.30;1.00;;;;;;;;;;5033797;28;20206;-40
2022/07/09 10:56:52;;;;;;;5.25;0.93;;;;;;;;;;5038686;28;20225;-41
2022/07/09 10:59:20;;;;;;;2.38;0.70;;;;;;;;;;5030349;28;20226;-39
2022/07/09 11:01:50;;;;;;;1.95;0.80;;;;;;;;;;5032837;28;20209;-43
2022/07/09 11:04:26;;;;;;;1.13;0.90;;;;;;;;;;5032378;28;20202;-42
2022/07/09 11:06:54;;;;;;;3.15;0.93;;;;;;;;;;5034682;28;20226;-41
2022/07/09 11:09:21;;;;;;;1.05;0.90;;;;;;;;;;5036456;28;20253;-43
2022/07/09 11:11:48;;;;;;;1.77;0.90;;;;;;;;;;5035078;28;20195;-42
2022/07/09 11:14:16;;;;;;;3.55;1.05;;;;;;;;;;5033064;28;20289;-42
2022/07/09 11:16:43;;;;;;;0.80;0.80;;;;;;;;;;5026780;28;20230;-42
2022/07/09 11:19:18;;;;;;;2.35;1.20;;;;;;;;;;5023880;28;20317;-42
2022/07/09 11:21:46;;;;;;;0.75;0.60;;;;;;;;;;5029152;28;20205;-41
2022/07/09 11:24:15;;;;;;;1.13;0.80;;;;;;;;;;5037303;28;20294;-40
2022/07/09 11:26:42;;;;;;;0.70;0.70;;;;;;;;;;5038628;28;20234;-38
2022/07/09 11:29:11;;;;;;;1.63;0.73;;;;;;;;;;5030509;28;20426;-44
2022/07/09 11:31:38;;;;;;;3.38;1.20;;;;;;;;;;5027484;28;20238;-39
2022/07/09 11:34:12;;;;;;;3.30;0.93;;;;;;;;;;5026223;28;20202;-44
2022/07/09 11:36:41;;;;;;;2.25;1.20;;;;;;;;;;5022870;28;20230;-42
2022/07/09 11:39:09;;;;;;;3.28;1.10;;;;;;;;;;5032221;28;20211;-45
2022/07/09 11:41:43;;;;;;;1.77;1.00;;;;;;;;;;5033153;28;20202;-41
2022/07/09 11:44:11;;;;;;;1.73;1.00;;;;;;;;;;5027180;28;20292;-41
2022/07/09 11:46:39;;;;;;;1.52;1.02;;;;;;;;;;5037013;28;20218;-37
2022/07/09 11:49:15;;;;;;;1.73;0.90;;;;;;;;;;5024301;28;20221;-41
2022/07/09 11:51:44;;;;;;;2.63;1.03;;;;;;;;;;5025712;28;20213;-39
2022/07/09 11:54:11;;;;;;;2.13;0.95;;;;;;;;;;5030726;28;20285;-41
2022/07/09 11:56:45;;;;;;;1.38;1.02;;;;;;;;;;5026634;28;20226;-41
2022/07/09 11:59:27;;;;;;;1.27;1.10;;;;;;;;;;5027747;28;20231;-42
2022/07/09 12:01:55;;;;;;;1.30;0.95;;;;;;;;;;5028520;28;20201;-44
2022/07/09 12:04:22;;;;;;;1.65;0.90;;;;;;;;;;5024478;28;20217;-39
2022/07/09 12:06:52;;;;;;;1.75;1.10;;;;;;;;;;5030502;28;20218;-43
2022/07/09 12:09:28;;;;;;;2.05;1.00;;;;;;;;;;5026144;28;20217;-42
2022/07/09 12:11:56;;;;;;;2.67;0.90;;;;;;;;;;5027876;28;20380;-41
2022/07/09 12:14:23;;;;;;;1.40;1.10;;;;;;;;;;5024274;28;20293;-43
2022/07/09 12:16:50;;;;;;;1.58;0.90;;;;;;;;;;5025768;28;20229;-40
2022/07/09 12:19:17;;;;;;;2.17;1.20;;;;;;;;;;5021554;28;20225;-39
2022/07/09 12:21:44;;;;;;;4.10;1.00;;;;;;;;;;5026910;28;20211;-40
2022/07/09 12:24:14;;;;;;;3.78;1.10;;;;;;;;;;5030555;28;20316;-41
2022/07/09 12:26:41;;;;;;;4.20;1.30;;;;;;;;;;5023919;28;20222;-43
2022/07/09 12:29:09;;;;;;;1.50;1.08;;;;;;;;;;5021161;28;20194;-42
2022/07/09 12:31:37;;;;;;;1.48;1.13;;;;;;;;;;5034191;28;20202;-42
2022/07/09 12:34:05;;;;;;;2.03;1.20;;;;;;;;;;5021033;28;20203;-40
2022/07/09 12:36:32;;;;;;;2.17;1.10;;;;;;;;;;5025071;28;20233;-40
2022/07/09 12:38:59;;;;;;;2.05;1.30;;;;;;;;;;5028417;28;20215;-40
2022/07/09 12:41:27;;;;;;;1.58;1.23;;;;;;;;;;5023393;28;20210;-42
2022/07/09 12:43:55;;;;;;;1.38;1.20;;;;;;;;;;5027226;28;20333;-46
2022/07/09 12:46:23;;;;;;;2.42;1.17;;;;;;;;;;5024613;28;20277;-42
2022/07/09 12:48:50;;;;;;;0.93;0.93;;;;;;;;;;5019083;28;20230;-44
2022/07/09 12:51:17;;;;;;;2.00;1.13;;;;;;;;;;5029909;28;20266;-37
2022/07/09 12:53:44;;;;;;;2.80;1.35;;;;;;;;;;5025467;28;20198;-45
2022/07/09 12:56:11;;;;;;;1.25;1.15;;;;;;;;;;5033626;28;20236;-41
2022/07/09 12:58:44;;;;;;;4.75;1.00;;;;;;;;;;5029827;28;20231;-41
2022/07/09 13:01:11;;;;;;;1.27;1.17;;;;;;;;;;5033426;28;20238;-45
2022/07/09 13:03:39;;;;;;;2.83;1.00;;;;;;;;;;5027548;28;20294;-41
2022/07/09 13:06:30;;;;;;;1.60;1.15;;;;;;;;;;5023586;28;20203;-42
2022/07/09 13:08:54;;;;;;;3.35;1.30;;;;;;;;;;5024243;28;20199;-41
2022/07/09 13:11:23;;;;;;;1.30;1.20;;;;;;;;;;5023070;28;20290;-42
2022/07/09 13:13:54;;;;;;;3.10;1.15;;;;;;;;;;5022014;28;20212;-39
2022/07/09 13:16:22;;;;;;;3.10;1.17;;;;;;;;;;5033799;28;20225;-41
2022/07/09 13:18:49;;;;;;;3.95;1.40;;;;;;;;;;5028352;28;20247;-39
2022/07/09 13:21:16;;;;;;;3.47;1.35;;;;;;;;;;5029264;28;20207;-45
2022/07/09 13:23:43;;;;;;;2.08;1.10;;;;;;;;;;5025764;28;20203;-37
2022/07/09 13:26:11;;;;;;;1.38;1.00;;;;;;;;;;5028523;28;20223;-41
2022/07/09 13:28:38;;;;;;;1.77;1.05;;;;;;;;;;5024743;28;20251;-37
2022/07/09 13:31:06;;;;;;;3.83;0.90;;;;;;;;;;5021798;28;20302;-43
2022/07/09 13:33:34;;;;;;;2.67;0.98;;;;;;;;;;5023588;28;20218;-46
2022/07/09 13:36:01;;;;;;;2.58;1.38;;;;;;;;;;5027758;28;20216;-46
2022/07/09 13:38:28;;;;;;;1.65;1.13;;;;;;;;;;5028236;28;20308;-46
2022/07/09 13:40:55;;;;;;;2.42;1.10;;;;;;;;;;5023932;28;20200;-37
2022/07/09 13:43:24;;;;;;;1.50;0.90;;;;;;;;;;5014190;28;20224;-41
2022/07/09 13:45:51;;;;;;;2.20;1.00;;;;;;;;;;5027638;28;20222;-42
2022/07/09 13:48:20;;;;;;;2.20;1.00;;;;;;;;;;5021887;28;20205;-46
2022/07/09 13:50:47;;;;;;;0.95;0.95;;;;;;;;;;5020125;28;20235;-43
2022/07/09 13:53:14;;;;;;;2.40;0.98;;;;;;;;;;5024295;28;20205;-43
2022/07/09 13:55:41;;;;;;;4.20;1.20;;;;;;;;;;5033808;28;20235;-40
2022/07/09 13:58:08;;;;;;;1.50;0.88;;;;;;;;;;5027882;28;20235;-40
2022/07/09 14:00:35;;;;;;;1.15;1.05;;;;;;;;;;5031296;28;20230;-40
2022/07/09 14:03:02;;;;;;;1.35;0.95;;;;;;;;;;5021269;28;20207;-40
2022/07/09 14:05:31;;;;;;;1.27;1.00;;;;;;;;;;5022453;28;20207;-41
2022/07/09 14:07:59;;;;;;;0.98;0.82;;;;;;;;;;5031587;28;20228;-44
2022/07/09 14:10:26;;;;;;;0.98;0.90;;;;;;;;;;5032766;28;20204;-38
2022/07/09 14:12:53;;;;;;;0.90;0.80;;;;;;;;;;5032641;28;20246;-45
2022/07/09 14:15:20;;;;;;;0.98;0.80;;;;;;;;;;5030979;28;20214;-40
2022/07/09 14:17:48;;;;;;;1.50;0.80;;;;;;;;;;5027821;28;20233;-40
2022/07/09 14:20:15;;;;;;;1.02;0.80;;;;;;;;;;5015375;28;20255;-44
2022/07/09 14:22:46;;;;;;;0.95;0.80;;;;;;;;;;5027098;28;20203;-40
2022/07/09 14:25:13;;;;;;;5.00;1.10;;;;;;;;;;5025319;28;20207;-41
2022/07/09 14:27:40;;;;;;;1.02;0.95;;;;;;;;;;5030210;28;20238;-43
2022/07/09 14:30:09;;;;;;;1.38;1.10;;;;;;;;;;5024286;28;20204;-41
2022/07/09 14:32:36;;;;;;;1.58;1.10;;;;;;;;;;5032396;28;20207;-43
2022/07/09 14:35:03;;;;;;;1.45;0.77;;;;;;;;;;5020954;28;20219;-45
2022/07/09 14:37:30;;;;;;;1.75;0.88;;;;;;;;;;5022137;28;20244;-41
2022/07/09 14:39:59;;;;;;;1.75;1.38;;;;;;;;;;5029863;28;20259;-42
2022/07/09 14:42:26;;;;;;;1.15;0.90;;;;;;;;;;5025196;28;20220;-41
2022/07/09 14:44:53;;;;;;;1.48;0.90;;;;;;;;;;5028464;28;20220;-39
2022/07/09 14:47:20;;;;;;;0.90;0.90;;;;;;;;;;5031893;28;20223;-42
2022/07/09 14:49:47;;;;;;;0.90;0.90;;;;;;;;;;5015642;28;20208;-43
2022/07/09 14:52:15;;;;;;;1.10;1.00;;;;;;;;;;5026442;28;20260;-35